Terminal Aerodrome Forecast
Issued by NWS Jacksonville, FL

Home | Current Version | Previous Version | Text Only | Print | Product List | Glossary On
Versions: 1 2 3 4 5 6 7 8 9 10 11 12 13 14 15 16 17 18 19 20 21 22
000
FTUS42 KJAX 231100
TAFGNV
TAF
KGNV 231120Z 2312/2412 29005KT P6SM FEW050 SCT250
     FM232100 25005KT P6SM VCTS SCT035CB BKN050
     FM240200 VRB03KT P6SM SCT030 BKN100=

USA.gov is the U.S. government's official web portal to all federal, state and local government web resources and services.